createdAt,value
2023-05-14T00:00:29.806Z,14.33
2023-05-14T00:01:29.775Z,14.40
2023-05-14T00:02:29.887Z,14.41
2023-05-14T00:03:29.861Z,14.30
2023-05-14T00:04:29.727Z,14.28
2023-05-14T00:05:29.645Z,14.30
2023-05-14T00:06:29.609Z,14.32
2023-05-14T00:07:29.571Z,14.36
2023-05-14T00:08:29.548Z,14.30
2023-05-14T00:09:29.533Z,14.30
2023-05-14T00:10:29.478Z,14.35
2023-05-14T00:11:29.443Z,14.30
2023-05-14T00:12:29.400Z,14.30
2023-05-14T00:13:29.367Z,14.29
2023-05-14T00:14:29.332Z,14.22
2023-05-14T00:15:29.303Z,14.20
2023-05-14T00:16:29.344Z,14.20
2023-05-14T00:17:29.254Z,14.22
2023-05-14T00:18:29.227Z,14.25
2023-05-14T00:19:29.171Z,14.18
2023-05-14T00:20:29.148Z,14.23
2023-05-14T00:21:29.103Z,14.23
2023-05-14T00:22:29.064Z,14.12
2023-05-14T00:23:29.035Z,14.18
2023-05-14T00:24:28.997Z,14.11
2023-05-14T00:25:28.962Z,14.15
2023-05-14T00:26:28.937Z,14.15
2023-05-14T00:27:28.900Z,14.14
2023-05-14T00:28:28.860Z,14.07
2023-05-14T00:29:28.828Z,14.05
2023-05-14T00:30:28.792Z,14.03
2023-05-14T00:31:28.824Z,13.96
2023-05-14T00:32:28.752Z,14.04
2023-05-14T00:33:28.695Z,13.93
2023-05-14T00:34:28.673Z,13.96
2023-05-14T00:35:28.637Z,13.92
2023-05-14T00:36:28.616Z,14.03
2023-05-14T00:37:28.569Z,13.90
2023-05-14T00:38:28.531Z,13.87
2023-05-14T00:39:28.491Z,13.90
2023-05-14T00:40:28.458Z,13.90
2023-05-14T00:41:28.434Z,13.85
2023-05-14T00:42:28.386Z,13.93
2023-05-14T00:43:28.355Z,13.86
2023-05-14T00:44:28.321Z,13.86
2023-05-14T00:45:28.304Z,13.81
2023-05-14T00:46:28.276Z,13.78
2023-05-14T00:47:28.250Z,13.79
2023-05-14T00:48:28.188Z,13.85
2023-05-14T00:49:28.147Z,13.85
2023-05-14T00:50:28.121Z,13.78
2023-05-14T00:51:28.080Z,13.72
2023-05-14T00:52:28.060Z,13.75
2023-05-14T00:53:28.041Z,13.65
2023-05-14T00:54:27.983Z,13.78
2023-05-14T00:55:28.025Z,13.79
2023-05-14T00:56:27.910Z,13.71
2023-05-14T00:57:27.880Z,13.81
2023-05-14T00:58:27.846Z,13.75
2023-05-14T00:59:27.813Z,13.67
2023-05-14T01:00:27.778Z,13.68
2023-05-14T01:01:27.823Z,13.70
2023-05-14T01:02:27.783Z,13.67
2023-05-14T01:03:27.789Z,13.68
2023-05-14T01:04:27.636Z,13.62
2023-05-14T01:05:27.606Z,13.67
2023-05-14T01:06:27.578Z,13.60
2023-05-14T01:07:27.541Z,13.62
2023-05-14T01:08:27.524Z,13.67
2023-05-14T01:09:27.468Z,13.60
2023-05-14T01:10:27.430Z,13.63
2023-05-14T01:11:27.402Z,13.67
2023-05-14T01:12:27.374Z,13.57
2023-05-14T01:13:27.333Z,13.54
2023-05-14T01:14:27.293Z,13.62
2023-05-14T01:15:27.265Z,13.57
2023-05-14T01:16:27.250Z,13.49
2023-05-14T01:17:27.279Z,13.53
2023-05-14T01:18:27.203Z,13.56
2023-05-14T01:19:27.130Z,13.46
2023-05-14T01:20:27.150Z,13.52
2023-05-14T01:21:27.065Z,13.50
2023-05-14T01:22:27.029Z,13.50
2023-05-14T01:23:26.989Z,13.52
2023-05-14T01:24:26.954Z,13.41
2023-05-14T01:25:26.923Z,13.47
2023-05-14T01:26:26.885Z,13.47
2023-05-14T01:27:26.854Z,13.44
2023-05-14T01:28:26.820Z,13.49
2023-05-14T01:29:26.802Z,13.41
2023-05-14T01:30:26.816Z,13.39
2023-05-14T01:31:26.764Z,13.33
2023-05-14T01:32:26.738Z,13.42
2023-05-14T01:33:26.646Z,13.33
2023-05-14T01:34:26.610Z,13.41
2023-05-14T01:35:26.580Z,13.35
2023-05-14T01:36:26.538Z,13.33
2023-05-14T01:37:26.513Z,13.37
2023-05-14T01:38:26.478Z,13.28
2023-05-14T01:39:26.443Z,13.30
2023-05-14T01:40:26.523Z,13.37
2023-05-14T01:41:26.365Z,13.28
2023-05-14T01:42:26.338Z,13.30
2023-05-14T01:43:26.405Z,13.28
2023-05-14T01:44:26.263Z,13.25
2023-05-14T01:45:26.230Z,13.25
2023-05-14T01:46:26.242Z,13.31
2023-05-14T01:47:26.181Z,13.22
2023-05-14T01:48:26.144Z,13.28
2023-05-14T01:49:26.096Z,13.23
2023-05-14T01:50:26.184Z,13.22
2023-05-14T01:51:26.026Z,13.19
2023-05-14T01:52:25.995Z,13.22
2023-05-14T01:53:25.954Z,13.18
2023-05-14T01:54:25.930Z,13.20
2023-05-14T01:55:25.894Z,13.16
2023-05-14T01:56:25.963Z,13.20
2023-05-14T01:57:25.818Z,13.16
2023-05-14T01:58:25.802Z,13.20
2023-05-14T01:59:25.745Z,13.20
2023-05-14T02:00:25.965Z,13.20
2023-05-14T02:01:25.724Z,13.18
2023-05-14T02:02:25.849Z,13.12
2023-05-14T02:03:25.609Z,13.13
2023-05-14T02:04:25.609Z,13.08
2023-05-14T02:05:25.550Z,13.15
2023-05-14T02:06:25.506Z,13.13
2023-05-14T02:07:25.472Z,13.08
2023-05-14T02:08:25.434Z,13.08
2023-05-14T02:09:25.399Z,13.11
2023-05-14T02:10:25.647Z,13.11
2023-05-14T02:11:25.343Z,13.11
2023-05-14T02:12:25.302Z,13.12
2023-05-14T02:13:25.262Z,13.15
2023-05-14T02:14:25.232Z,12.97
2023-05-14T02:15:25.195Z,13.12
2023-05-14T02:16:25.264Z,13.00
2023-05-14T02:17:25.175Z,13.03
2023-05-14T02:18:25.125Z,12.97
2023-05-14T02:19:25.063Z,13.00
2023-05-14T02:20:25.195Z,13.03
2023-05-14T02:21:24.998Z,12.97
2023-05-14T02:22:24.953Z,12.98
2023-05-14T02:23:34.150Z,12.97
2023-05-14T02:24:24.893Z,12.93
2023-05-14T02:25:24.853Z,12.91
2023-05-14T02:26:24.817Z,12.95
2023-05-14T02:27:24.787Z,12.91
2023-05-14T02:28:24.758Z,12.87
2023-05-14T02:29:24.720Z,12.94
2023-05-14T02:30:24.965Z,12.83
2023-05-14T02:31:24.685Z,12.86
2023-05-14T02:32:24.708Z,12.83
2023-05-14T02:33:24.573Z,12.82
2023-05-14T02:34:24.545Z,12.82
2023-05-14T02:35:24.505Z,12.79
2023-05-14T02:36:24.476Z,12.82
2023-05-14T02:37:24.438Z,12.80
2023-05-14T02:38:24.402Z,12.79
2023-05-14T02:39:24.368Z,12.80
2023-05-14T02:40:24.548Z,12.78
2023-05-14T02:41:24.297Z,12.76
2023-05-14T02:42:24.279Z,12.80
2023-05-14T02:43:24.232Z,12.79
2023-05-14T02:44:24.218Z,12.70
2023-05-14T02:45:24.164Z,12.75
2023-05-14T02:46:24.191Z,12.75
2023-05-14T02:47:24.114Z,12.67
2023-05-14T02:48:24.057Z,12.67
2023-05-14T02:49:24.028Z,12.73
2023-05-14T02:50:24.278Z,12.68
2023-05-14T02:51:23.954Z,12.73
2023-05-14T02:52:23.922Z,12.78
2023-05-14T02:53:23.892Z,12.72
2023-05-14T02:54:23.862Z,12.72
2023-05-14T02:55:23.826Z,12.65
2023-05-14T02:56:23.795Z,12.57
2023-05-14T02:57:23.748Z,12.67
2023-05-14T02:58:27.291Z,12.68
2023-05-14T02:59:23.680Z,12.70
2023-05-14T03:00:23.954Z,12.65
2023-05-14T03:01:23.634Z,12.60
2023-05-14T03:02:23.626Z,12.60
2023-05-14T03:03:23.617Z,12.62
2023-05-14T03:04:23.522Z,12.57
2023-05-14T03:05:23.467Z,12.64
2023-05-14T03:06:23.436Z,12.60
2023-05-14T03:07:23.398Z,12.55
2023-05-14T03:08:23.364Z,12.68
2023-05-14T03:09:23.329Z,12.64
2023-05-14T03:10:23.554Z,12.64
2023-05-14T03:11:23.257Z,12.58
2023-05-14T03:12:23.232Z,12.54
2023-05-14T03:13:23.188Z,12.65
2023-05-14T03:14:23.157Z,12.61
2023-05-14T03:15:23.129Z,12.64
2023-05-14T03:16:23.121Z,12.64
2023-05-14T03:17:23.080Z,12.57
2023-05-14T03:18:23.018Z,12.53
2023-05-14T03:19:22.991Z,12.49
2023-05-14T03:20:23.083Z,12.36
2023-05-14T03:21:22.918Z,12.49
2023-05-14T03:22:22.886Z,12.39
2023-05-14T03:23:22.844Z,12.39
2023-05-14T03:24:22.806Z,12.36
2023-05-14T03:25:22.792Z,12.36
2023-05-14T03:26:22.730Z,12.39
2023-05-14T03:27:22.704Z,12.39
2023-05-14T03:28:22.665Z,12.35
2023-05-14T03:29:22.628Z,12.36
2023-05-14T03:30:22.919Z,12.31
2023-05-14T03:31:22.735Z,12.27
2023-05-14T03:32:22.537Z,12.35
2023-05-14T03:33:22.497Z,12.35
2023-05-14T03:34:22.462Z,12.37
2023-05-14T03:35:22.426Z,12.28
2023-05-14T03:36:22.393Z,12.29
2023-05-14T03:37:22.352Z,12.32
2023-05-14T03:38:22.320Z,12.29
2023-05-14T03:39:22.297Z,12.25
2023-05-14T03:40:22.330Z,12.27
2023-05-14T03:41:22.217Z,12.20
2023-05-14T03:42:22.179Z,12.25
2023-05-14T03:43:22.150Z,12.28
2023-05-14T03:44:22.105Z,12.31
2023-05-14T03:45:22.075Z,12.27
2023-05-14T03:46:22.040Z,12.27
2023-05-14T03:47:22.081Z,12.29
2023-05-14T03:48:22.072Z,12.32
2023-05-14T03:49:21.931Z,12.28
2023-05-14T03:50:22.003Z,12.25
2023-05-14T03:51:21.868Z,12.35
2023-05-14T03:52:21.835Z,12.27
2023-05-14T03:53:21.790Z,12.28
2023-05-14T03:54:21.763Z,12.25
2023-05-14T03:55:21.722Z,12.31
2023-05-14T03:56:21.686Z,12.20
2023-05-14T03:57:21.649Z,12.21
2023-05-14T03:58:21.618Z,12.29
2023-05-14T03:59:21.581Z,12.28
2023-05-14T04:00:21.894Z,12.24
2023-05-14T04:01:21.518Z,12.25
2023-05-14T04:02:21.512Z,12.28
2023-05-14T04:03:21.595Z,12.24
2023-05-14T04:04:21.558Z,12.25
2023-05-14T04:05:21.389Z,12.24
2023-05-14T04:06:21.380Z,12.22
2023-05-14T04:07:21.336Z,12.28
2023-05-14T04:08:21.273Z,12.32
2023-05-14T04:09:21.233Z,12.27
2023-05-14T04:10:21.249Z,12.25
2023-05-14T04:11:21.164Z,12.27
2023-05-14T04:12:21.123Z,12.18
2023-05-14T04:13:21.199Z,12.15
2023-05-14T04:14:21.053Z,12.21
2023-05-14T04:15:21.021Z,12.20
2023-05-14T04:16:20.989Z,12.21
2023-05-14T04:17:20.960Z,12.20
2023-05-14T04:18:20.945Z,12.15
2023-05-14T04:19:20.886Z,12.21
2023-05-14T04:20:20.866Z,12.22
2023-05-14T04:21:20.814Z,12.20
2023-05-14T04:22:20.774Z,12.20
2023-05-14T04:23:20.741Z,12.17
2023-05-14T04:24:20.710Z,12.17
2023-05-14T04:25:20.670Z,12.20
2023-05-14T04:26:20.640Z,12.12
2023-05-14T04:27:20.616Z,12.21
2023-05-14T04:28:20.561Z,12.20
2023-05-14T04:29:20.534Z,12.20
2023-05-14T04:30:20.509Z,12.20
2023-05-14T04:31:20.519Z,12.25
2023-05-14T04:32:20.446Z,12.22
2023-05-14T04:33:20.396Z,12.18
2023-05-14T04:34:20.363Z,12.22
2023-05-14T04:35:21.570Z,12.31
2023-05-14T04:36:20.295Z,12.25
2023-05-14T04:37:20.250Z,12.27
2023-05-14T04:38:20.210Z,12.24
2023-05-14T04:39:20.183Z,12.24
2023-05-14T04:40:20.137Z,12.25
2023-05-14T04:41:20.115Z,12.25
2023-05-14T04:42:20.077Z,12.20
2023-05-14T04:43:20.047Z,12.27
2023-05-14T04:44:20.012Z,12.20
2023-05-14T04:45:19.978Z,12.28
2023-05-14T04:46:19.968Z,12.24
2023-05-14T04:47:19.942Z,12.25
2023-05-14T04:48:19.856Z,12.29
2023-05-14T04:49:19.828Z,12.25
2023-05-14T04:50:19.787Z,12.24
2023-05-14T04:51:19.747Z,12.27
2023-05-14T04:52:19.742Z,12.29
2023-05-14T04:53:19.688Z,12.39
2023-05-14T04:54:19.686Z,12.24
2023-05-14T04:55:19.624Z,12.32
2023-05-14T04:56:19.579Z,12.29
2023-05-14T04:57:19.541Z,12.27
2023-05-14T04:58:19.506Z,12.25
2023-05-14T04:59:19.477Z,12.36
2023-05-14T05:00:19.441Z,12.39
2023-05-14T05:01:19.443Z,12.39
2023-05-14T05:02:19.364Z,12.35
2023-05-14T05:03:19.406Z,12.43
2023-05-14T05:04:19.394Z,12.36
2023-05-14T05:05:19.273Z,12.40
2023-05-14T05:06:19.231Z,12.35
2023-05-14T05:07:19.194Z,12.47
2023-05-14T05:08:19.162Z,12.49
2023-05-14T05:09:19.122Z,12.43
2023-05-14T05:10:19.097Z,12.50
2023-05-14T05:11:19.061Z,12.53
2023-05-14T05:12:19.022Z,12.62
2023-05-14T05:13:18.996Z,12.47
2023-05-14T05:14:18.953Z,12.45
2023-05-14T05:15:18.922Z,12.67
2023-05-14T05:16:18.924Z,12.61
2023-05-14T05:17:18.900Z,12.64
2023-05-14T05:18:18.819Z,12.61
2023-05-14T05:19:20.873Z,12.61
2023-05-14T05:20:18.740Z,12.65
2023-05-14T05:21:18.709Z,12.62
2023-05-14T05:22:18.674Z,12.64
2023-05-14T05:23:18.636Z,12.65
2023-05-14T05:24:18.608Z,12.61
2023-05-14T05:25:18.587Z,12.62
2023-05-14T05:26:18.534Z,12.64
2023-05-14T05:27:18.498Z,12.61
2023-05-14T05:28:18.471Z,12.73
2023-05-14T05:29:18.427Z,12.62
2023-05-14T05:30:18.398Z,12.68
2023-05-14T05:31:19.792Z,12.78
2023-05-14T05:32:18.326Z,12.80
2023-05-14T05:33:18.286Z,12.73
2023-05-14T05:34:18.259Z,12.82
2023-05-14T05:35:18.230Z,12.79
2023-05-14T05:36:18.180Z,12.86
2023-05-14T05:37:18.152Z,12.85
2023-05-14T05:38:18.115Z,12.80
2023-05-14T05:39:18.083Z,12.91
2023-05-14T05:40:18.044Z,12.86
2023-05-14T05:41:18.007Z,12.87
2023-05-14T05:42:17.970Z,13.03
2023-05-14T05:43:17.938Z,13.01
2023-05-14T05:44:17.909Z,13.03
2023-05-14T05:45:17.887Z,13.11
2023-05-14T05:46:17.864Z,13.15
2023-05-14T05:47:17.801Z,13.03
2023-05-14T05:48:17.758Z,13.08
2023-05-14T05:49:17.733Z,13.12
2023-05-14T05:50:19.474Z,13.11
2023-05-14T05:51:17.669Z,13.22
2023-05-14T05:52:17.626Z,13.15
2023-05-14T05:53:17.600Z,13.11
2023-05-14T05:54:17.561Z,13.22
2023-05-14T05:55:17.521Z,13.25
2023-05-14T05:56:17.490Z,13.22
2023-05-14T05:57:17.448Z,13.22
2023-05-14T05:58:17.419Z,13.28
2023-05-14T05:59:17.382Z,13.27
2023-05-14T06:00:17.344Z,13.31
2023-05-14T06:01:17.314Z,13.38
2023-05-14T06:02:17.346Z,13.31
2023-05-14T06:03:17.250Z,13.33
2023-05-14T06:04:17.234Z,13.41
2023-05-14T06:05:17.198Z,13.41
2023-05-14T06:06:17.147Z,13.44
2023-05-14T06:07:17.112Z,13.44
2023-05-14T06:08:17.075Z,13.50
2023-05-14T06:09:17.039Z,13.47
2023-05-14T06:10:17.006Z,13.49
2023-05-14T06:11:17.046Z,13.56
2023-05-14T06:12:17.020Z,13.59
2023-05-14T06:13:16.898Z,13.62
2023-05-14T06:14:16.867Z,13.68
2023-05-14T06:15:16.837Z,13.63
2023-05-14T06:16:16.820Z,13.63
2023-05-14T06:17:16.769Z,13.70
2023-05-14T06:18:16.743Z,13.68
2023-05-14T06:19:16.756Z,13.60
2023-05-14T06:20:16.733Z,13.75
2023-05-14T06:21:16.626Z,13.79
2023-05-14T06:22:16.586Z,13.71
2023-05-14T06:23:16.557Z,13.78
2023-05-14T06:24:16.536Z,13.72
2023-05-14T06:25:16.492Z,13.75
2023-05-14T06:26:16.453Z,13.75
2023-05-14T06:27:16.421Z,13.75
2023-05-14T06:28:16.403Z,13.78
2023-05-14T06:29:16.350Z,13.83
2023-05-14T06:30:16.320Z,13.86
2023-05-14T06:31:16.283Z,13.78
2023-05-14T06:32:16.300Z,13.92
2023-05-14T06:33:16.234Z,13.96
2023-05-14T06:34:16.180Z,14.04
2023-05-14T06:35:16.157Z,14.07
2023-05-14T06:36:16.115Z,14.07
2023-05-14T06:37:16.082Z,14.08
2023-05-14T06:38:16.042Z,14.00
2023-05-14T06:39:16.011Z,13.97
2023-05-14T06:40:15.983Z,14.04
2023-05-14T06:41:15.944Z,14.03
2023-05-14T06:42:15.911Z,14.20
2023-05-14T06:43:15.870Z,14.20
2023-05-14T06:44:15.909Z,14.05
2023-05-14T06:45:15.814Z,14.00
2023-05-14T06:46:15.787Z,14.05
2023-05-14T06:47:15.746Z,14.11
2023-05-14T06:48:15.838Z,14.17
2023-05-14T06:49:15.708Z,14.14
2023-05-14T06:50:15.637Z,14.15
2023-05-14T06:51:15.603Z,14.28
2023-05-14T06:52:15.573Z,14.28
2023-05-14T06:53:15.536Z,14.32
2023-05-14T06:54:15.500Z,14.35
2023-05-14T06:55:15.465Z,14.40
2023-05-14T06:56:15.433Z,14.36
2023-05-14T06:57:15.407Z,14.51
2023-05-14T06:58:15.365Z,14.45
2023-05-14T06:59:15.332Z,14.41
2023-05-14T07:00:15.299Z,14.47
2023-05-14T07:01:15.347Z,14.51
2023-05-14T07:02:15.225Z,14.60
2023-05-14T07:03:15.201Z,14.63
2023-05-14T07:04:15.207Z,14.68
2023-05-14T07:05:15.131Z,14.62
2023-05-14T07:06:15.088Z,14.66
2023-05-14T07:07:15.068Z,14.62
2023-05-14T07:08:15.026Z,14.73
2023-05-14T07:09:14.991Z,14.69
2023-05-14T07:10:14.958Z,14.72
2023-05-14T07:11:14.932Z,14.82
2023-05-14T07:12:14.896Z,14.84
2023-05-14T07:13:14.858Z,14.82
2023-05-14T07:14:14.837Z,14.85
2023-05-14T07:15:14.797Z,14.86
2023-05-14T07:16:14.767Z,15.00
2023-05-14T07:17:14.803Z,14.99
2023-05-14T07:18:14.753Z,15.09
2023-05-14T07:19:14.710Z,15.11
2023-05-14T07:20:14.626Z,15.10
2023-05-14T07:21:14.594Z,15.21
2023-05-14T07:22:14.564Z,15.24
2023-05-14T07:23:14.525Z,15.21
2023-05-14T07:24:14.500Z,15.27
2023-05-14T07:25:14.459Z,15.33
2023-05-14T07:26:14.423Z,15.35
2023-05-14T07:27:14.395Z,15.36
2023-05-14T07:28:14.356Z,15.36
2023-05-14T07:29:14.322Z,15.28
2023-05-14T07:30:14.288Z,15.31
2023-05-14T07:31:14.279Z,15.40
2023-05-14T07:32:15.663Z,15.43
2023-05-14T07:33:14.199Z,15.46
2023-05-14T07:34:14.160Z,15.49
2023-05-14T07:35:14.126Z,15.49
2023-05-14T07:36:14.109Z,15.68
2023-05-14T07:37:14.059Z,15.67
2023-05-14T07:38:14.032Z,15.65
2023-05-14T07:39:13.999Z,15.73
2023-05-14T07:40:13.959Z,15.73
2023-05-14T07:41:13.958Z,15.73
2023-05-14T07:42:22.076Z,15.73
2023-05-14T07:43:13.865Z,15.76
2023-05-14T07:44:13.830Z,15.79
2023-05-14T07:45:13.792Z,15.94
2023-05-14T07:46:13.768Z,15.98
2023-05-14T07:47:13.815Z,15.94
2023-05-14T07:48:13.865Z,15.97
2023-05-14T07:49:13.670Z,15.90
2023-05-14T07:50:13.635Z,15.98
2023-05-14T07:51:13.598Z,16.00
2023-05-14T07:52:13.572Z,16.05
2023-05-14T07:53:13.531Z,16.09
2023-05-14T07:54:13.513Z,16.13
2023-05-14T07:55:13.494Z,16.12
2023-05-14T07:56:13.446Z,16.28
2023-05-14T07:57:13.402Z,16.28
2023-05-14T07:58:13.369Z,16.29
2023-05-14T07:59:13.344Z,16.26
2023-05-14T08:00:13.305Z,16.31
2023-05-14T08:01:13.268Z,16.42
2023-05-14T08:02:13.308Z,16.41
2023-05-14T08:03:13.307Z,16.46
2023-05-14T08:04:13.297Z,16.46
2023-05-14T08:05:13.151Z,16.46
2023-05-14T08:06:13.109Z,16.39
2023-05-14T08:07:13.084Z,16.56
2023-05-14T08:08:13.054Z,16.49
2023-05-14T08:09:13.012Z,16.53
2023-05-14T08:10:13.014Z,16.50
2023-05-14T08:11:13.001Z,16.57
2023-05-14T08:12:12.914Z,16.61
2023-05-14T08:13:12.885Z,16.71
2023-05-14T08:14:12.853Z,16.74
2023-05-14T08:15:12.827Z,16.74
2023-05-14T08:16:12.788Z,16.76
2023-05-14T08:17:12.820Z,16.89
2023-05-14T08:18:12.774Z,16.89
2023-05-14T08:19:12.846Z,16.99
2023-05-14T08:20:12.684Z,16.99
2023-05-14T08:21:12.624Z,17.14
2023-05-14T08:22:12.596Z,17.20
2023-05-14T08:23:12.563Z,17.19
2023-05-14T08:24:12.526Z,17.27
2023-05-14T08:25:12.507Z,17.23
2023-05-14T08:26:12.469Z,17.27
2023-05-14T08:27:12.437Z,17.29
2023-05-14T08:28:12.411Z,17.29
2023-05-14T08:29:13.437Z,17.33
2023-05-14T08:30:12.350Z,17.34
2023-05-14T08:31:12.366Z,17.39
2023-05-14T08:32:22.547Z,17.36
2023-05-14T08:33:12.273Z,17.34
2023-05-14T08:34:12.208Z,17.46
2023-05-14T08:35:12.179Z,17.57
2023-05-14T08:36:12.155Z,17.51
2023-05-14T08:37:12.112Z,17.51
2023-05-14T08:38:12.086Z,17.56
2023-05-14T08:39:12.054Z,17.63
2023-05-14T08:40:12.043Z,17.64
2023-05-14T08:41:11.994Z,17.64
2023-05-14T08:42:11.955Z,17.68
2023-05-14T08:43:11.923Z,17.76
2023-05-14T08:44:11.902Z,17.80
2023-05-14T08:45:11.872Z,17.80
2023-05-14T08:46:11.828Z,17.83
2023-05-14T08:47:11.805Z,17.82
2023-05-14T08:48:11.784Z,17.76
2023-05-14T08:49:12.105Z,17.79
2023-05-14T08:50:11.702Z,17.79
2023-05-14T08:51:11.670Z,17.80
2023-05-14T08:52:11.658Z,17.94
2023-05-14T08:53:11.609Z,17.98
2023-05-14T08:54:11.577Z,18.00
2023-05-14T08:55:11.545Z,17.98
2023-05-14T08:56:11.569Z,17.98
2023-05-14T08:57:11.495Z,17.98
2023-05-14T08:58:11.452Z,18.00
2023-05-14T08:59:11.424Z,18.13
2023-05-14T09:00:11.385Z,18.15
2023-05-14T09:01:11.362Z,18.15
2023-05-14T09:02:11.456Z,18.15
2023-05-14T09:03:11.326Z,18.26
2023-05-14T09:04:11.279Z,18.19
2023-05-14T09:05:11.252Z,18.25
2023-05-14T09:06:11.200Z,18.34
2023-05-14T09:07:11.179Z,18.37
2023-05-14T09:08:11.149Z,18.33
2023-05-14T09:09:11.109Z,18.35
2023-05-14T09:10:11.116Z,18.53
2023-05-14T09:11:11.042Z,18.45
2023-05-14T09:12:11.008Z,18.47
2023-05-14T09:13:10.982Z,18.52
2023-05-14T09:14:10.946Z,18.53
2023-05-14T09:15:10.925Z,18.60
2023-05-14T09:16:10.916Z,18.62
2023-05-14T09:17:10.852Z,18.73
2023-05-14T09:18:10.838Z,18.78
2023-05-14T09:19:10.820Z,18.74
2023-05-14T09:20:10.760Z,18.78
2023-05-14T09:21:10.724Z,18.74
2023-05-14T09:22:10.705Z,18.80
2023-05-14T09:23:10.697Z,18.81
2023-05-14T09:24:10.646Z,18.81
2023-05-14T09:25:10.602Z,18.78
2023-05-14T09:26:10.577Z,18.77
2023-05-14T09:27:10.546Z,18.75
2023-05-14T09:28:10.535Z,18.78
2023-05-14T09:29:10.482Z,18.84
2023-05-14T09:30:10.465Z,18.88
2023-05-14T09:31:10.492Z,18.95
2023-05-14T09:32:10.408Z,18.99
2023-05-14T09:33:10.442Z,18.92
2023-05-14T09:34:10.321Z,19.08
2023-05-14T09:35:10.298Z,19.09
2023-05-14T09:36:10.266Z,19.08
2023-05-14T09:37:10.272Z,19.15
2023-05-14T09:38:10.206Z,19.08
2023-05-14T09:39:10.182Z,19.08
2023-05-14T09:40:10.145Z,19.14
2023-05-14T09:41:10.113Z,19.11
2023-05-14T09:42:10.075Z,19.04
2023-05-14T09:43:10.069Z,19.09
2023-05-14T09:44:10.020Z,19.04
2023-05-14T09:45:09.989Z,19.02
2023-05-14T09:46:09.953Z,19.07
2023-05-14T09:47:09.979Z,19.18
2023-05-14T09:48:09.967Z,19.27
2023-05-14T09:49:09.859Z,19.19
2023-05-14T09:50:09.839Z,19.21
2023-05-14T09:51:09.805Z,19.29
2023-05-14T09:52:09.769Z,19.31
2023-05-14T09:53:09.742Z,19.31
2023-05-14T09:54:09.711Z,19.47
2023-05-14T09:55:09.678Z,19.39
2023-05-14T09:56:09.658Z,19.47
2023-05-14T09:57:09.624Z,19.31
2023-05-14T09:58:09.585Z,19.31
2023-05-14T09:59:09.561Z,19.30
2023-05-14T10:00:09.521Z,19.47
2023-05-14T10:01:09.543Z,19.52
2023-05-14T10:02:09.461Z,19.59
2023-05-14T10:03:09.546Z,19.48
2023-05-14T10:04:09.451Z,19.39
2023-05-14T10:05:09.404Z,19.41
2023-05-14T10:06:09.346Z,19.52
2023-05-14T10:07:09.313Z,19.51
2023-05-14T10:08:09.281Z,19.62
2023-05-14T10:09:09.252Z,19.73
2023-05-14T10:10:09.233Z,19.74
2023-05-14T10:11:09.193Z,19.81
2023-05-14T10:12:09.171Z,19.92
2023-05-14T10:13:09.128Z,19.96
2023-05-14T10:14:09.105Z,19.94
2023-05-14T10:15:09.069Z,19.84
2023-05-14T10:16:09.052Z,20.09
2023-05-14T10:17:09.031Z,20.06
2023-05-14T10:18:09.012Z,20.22
2023-05-14T10:19:08.990Z,20.26
2023-05-14T10:20:08.915Z,20.22
2023-05-14T10:21:08.887Z,20.18
2023-05-14T10:22:08.856Z,20.32
2023-05-14T10:23:08.839Z,20.37
2023-05-14T10:24:08.805Z,20.31
2023-05-14T10:25:08.775Z,20.41
2023-05-14T10:26:08.749Z,20.28
2023-05-14T10:27:08.710Z,20.43
2023-05-14T10:28:08.699Z,20.41
2023-05-14T10:29:08.648Z,20.58
2023-05-14T10:30:08.616Z,20.62
2023-05-14T10:31:08.636Z,20.65
2023-05-14T10:32:08.580Z,20.75
2023-05-14T10:33:08.579Z,20.60
2023-05-14T10:34:08.495Z,20.67
2023-05-14T10:35:08.474Z,20.69
2023-05-14T10:36:08.446Z,20.87
2023-05-14T10:37:08.423Z,21.02
2023-05-14T10:38:08.390Z,21.15
2023-05-14T10:39:08.361Z,21.07
2023-05-14T10:40:08.327Z,21.06
2023-05-14T10:41:08.301Z,21.12
2023-05-14T10:42:08.278Z,21.25
2023-05-14T10:43:08.237Z,21.27
2023-05-14T10:44:08.214Z,21.15
2023-05-14T10:45:08.195Z,21.18
2023-05-14T10:46:08.174Z,21.09
2023-05-14T10:47:08.123Z,21.11
2023-05-14T10:48:08.121Z,21.09
2023-05-14T10:49:08.065Z,21.17
2023-05-14T10:50:08.039Z,21.22
2023-05-14T10:51:08.073Z,21.40
2023-05-14T10:52:07.980Z,21.58
2023-05-14T10:53:07.963Z,21.73
2023-05-14T10:54:07.927Z,21.55
2023-05-14T10:55:07.904Z,21.57
2023-05-14T10:56:07.904Z,21.83
2023-05-14T10:57:07.843Z,21.85
2023-05-14T10:58:07.831Z,21.62
2023-05-14T10:59:07.794Z,21.88
2023-05-14T11:00:07.868Z,22.00
2023-05-14T11:01:07.726Z,22.06
2023-05-14T11:02:07.797Z,21.76
2023-05-14T11:03:07.782Z,21.75
2023-05-14T11:04:07.702Z,21.85
2023-05-14T11:05:07.624Z,21.80
2023-05-14T11:06:07.592Z,21.79
2023-05-14T11:07:07.565Z,21.95
2023-05-14T11:08:07.551Z,22.23
2023-05-14T11:09:07.522Z,22.51
2023-05-14T11:10:07.485Z,22.66
2023-05-14T11:11:07.465Z,22.51
2023-05-14T11:12:07.426Z,22.43
2023-05-14T11:13:07.413Z,22.35
2023-05-14T11:14:09.540Z,22.54
2023-05-14T11:15:07.359Z,22.48
2023-05-14T11:17:07.376Z,22.78
2023-05-14T11:18:07.297Z,22.81
2023-05-14T11:19:07.269Z,22.87
2023-05-14T11:20:07.413Z,22.83
2023-05-14T11:21:07.226Z,22.70
2023-05-14T11:22:07.160Z,22.66
2023-05-14T11:23:07.137Z,22.83
2023-05-14T11:24:07.105Z,23.03
2023-05-14T11:25:07.074Z,23.23
2023-05-14T11:26:07.094Z,23.17
2023-05-14T11:27:07.031Z,23.05
2023-05-14T11:28:07.004Z,23.13
2023-05-14T11:29:06.973Z,23.43
2023-05-14T11:30:06.943Z,23.20
2023-05-14T11:31:06.934Z,23.28
2023-05-14T11:32:06.998Z,23.44
2023-05-14T11:33:06.909Z,23.18
2023-05-14T11:34:06.846Z,22.99
2023-05-14T11:35:06.850Z,22.90
2023-05-14T11:36:06.796Z,23.23
2023-05-14T11:37:06.766Z,23.46
2023-05-14T11:38:08.621Z,23.71
2023-05-14T11:39:06.720Z,23.95
2023-05-14T11:40:06.680Z,23.96
2023-05-14T11:41:06.658Z,23.98
2023-05-14T11:42:06.638Z,23.66
2023-05-14T11:43:06.608Z,23.48
2023-05-14T11:44:08.555Z,23.88
2023-05-14T11:45:06.551Z,23.43
2023-05-14T11:46:06.615Z,23.71
2023-05-14T11:47:06.517Z,23.46
2023-05-14T11:48:06.539Z,23.39
2023-05-14T11:49:06.449Z,23.37
2023-05-14T11:50:08.583Z,23.40
2023-05-14T11:51:06.395Z,23.47
2023-05-14T11:52:06.371Z,23.41
2023-05-14T11:53:06.365Z,23.46
2023-05-14T11:54:06.319Z,23.23
2023-05-14T11:55:06.301Z,23.23
2023-05-14T11:56:08.884Z,23.46
2023-05-14T11:57:06.247Z,23.18
2023-05-14T11:58:06.211Z,23.28
2023-05-14T11:59:06.184Z,23.24
2023-05-14T12:00:06.179Z,23.50
2023-05-14T12:01:06.136Z,23.83
2023-05-14T12:02:06.136Z,24.10
2023-05-14T12:03:06.139Z,24.17
2023-05-14T12:04:06.139Z,24.40
2023-05-14T12:05:06.021Z,24.50
2023-05-14T12:06:05.999Z,24.40
2023-05-14T12:07:05.966Z,24.11
2023-05-14T12:08:05.944Z,23.98
2023-05-14T12:09:05.923Z,23.77
2023-05-14T12:10:05.900Z,23.88
2023-05-14T12:11:05.873Z,24.28
2023-05-14T12:12:05.837Z,24.45
2023-05-14T12:13:05.817Z,24.32
2023-05-14T12:14:05.807Z,24.61
2023-05-14T12:15:05.775Z,24.88
2023-05-14T12:16:05.781Z,25.17
2023-05-14T12:17:05.706Z,25.38
2023-05-14T12:18:13.625Z,25.50
2023-05-14T12:19:05.726Z,25.14
2023-05-14T12:20:05.656Z,25.18
2023-05-14T12:21:05.632Z,25.26
2023-05-14T12:22:05.587Z,25.58
2023-05-14T12:23:05.555Z,25.85
2023-05-14T12:24:05.535Z,25.62
2023-05-14T12:25:05.524Z,25.53
2023-05-14T12:26:05.488Z,25.48
2023-05-14T12:27:05.466Z,25.66
2023-05-14T12:28:05.446Z,25.66
2023-05-14T12:29:05.413Z,25.53
2023-05-14T12:31:05.384Z,25.75
2023-05-14T12:32:05.333Z,25.83
2023-05-14T12:33:05.371Z,25.91
2023-05-14T12:34:05.297Z,25.91
2023-05-14T12:35:05.274Z,26.07
2023-05-14T12:36:20.355Z,25.38
2023-05-14T12:37:05.205Z,25.03
2023-05-14T12:38:05.182Z,25.23
2023-05-14T12:39:05.160Z,25.38
2023-05-14T12:40:05.132Z,25.50
2023-05-14T12:41:05.103Z,25.70
2023-05-14T12:42:05.084Z,25.63
2023-05-14T12:43:05.057Z,25.62
2023-05-14T12:44:05.036Z,26.06
2023-05-14T12:45:05.064Z,26.23
2023-05-14T12:46:05.004Z,26.40
2023-05-14T12:47:05.007Z,26.07
2023-05-14T12:48:04.997Z,26.22
2023-05-14T12:49:04.912Z,26.45
2023-05-14T12:50:04.894Z,26.70
2023-05-14T12:51:04.863Z,26.77
2023-05-14T12:52:19.837Z,26.45
2023-05-14T12:53:04.808Z,26.62
2023-05-14T12:54:04.801Z,26.81